Rice Lake, Wisconsin
Current Conditions -  °F | °C
As of 8:15 AM on Saturday 25 Oct 2014 (Local Time) from KRPD Reporting Station
Clear Clear  
Wind Chill: 44°   Ceiling: Unl
Heat Index: 44°   Visibility: 10mi
Dew Point: 34°   Wind: 3mph
Humidity: 68%   Direction: 270°W
Pressure: 29.96"   Gusts: NA
Location:  45.49°N, 91.73°W
Report Text: KRPD 251315Z AUTO 27003KT 10SM CLR 07/01 A2996 RMK AO2 T00690013
Loading
Personal Weather Stations






























Interactive Weather Map
Tropical Storm Tracking
New forecast layout! Learn more

10-Day Weather Forecast

Advertisements
Track Severe Weather on mobile